createdAt,value
2022-10-22T00:01:11.715Z,14.48
2022-10-22T00:03:14.310Z,14.45
2022-10-22T00:05:16.927Z,14.39
2022-10-22T00:07:19.933Z,14.35
2022-10-22T00:09:22.500Z,14.33
2022-10-22T00:11:25.153Z,14.30
2022-10-22T00:13:28.182Z,14.31
2022-10-22T00:15:30.781Z,14.26
2022-10-22T00:17:34.744Z,14.25
2022-10-22T00:19:38.076Z,14.34
2022-10-22T00:21:40.779Z,14.37
2022-10-22T00:23:46.275Z,14.35
2022-10-22T00:25:49.196Z,14.30
2022-10-22T00:27:51.818Z,14.31
2022-10-22T00:29:54.495Z,14.33
2022-10-22T00:31:57.497Z,14.33
2022-10-22T00:34:02.328Z,14.38
2022-10-22T00:36:05.365Z,14.35
2022-10-22T00:38:07.941Z,14.37
2022-10-22T00:40:12.136Z,14.38
2022-10-22T00:42:19.195Z,14.28
2022-10-22T00:45:01.100Z,14.23
2022-10-22T00:47:03.846Z,14.20
2022-10-22T00:49:07.961Z,14.24
2022-10-22T00:51:11.068Z,14.22
2022-10-22T00:53:17.291Z,14.15
2022-10-22T00:55:21.627Z,14.10
2022-10-22T00:57:24.735Z,14.10
2022-10-22T00:59:27.384Z,14.01
2022-10-22T01:01:32.313Z,14.01
2022-10-22T01:03:35.022Z,13.99
2022-10-22T01:05:44.341Z,13.89
2022-10-22T01:07:49.491Z,13.97
2022-10-22T01:10:02.152Z,13.97
2022-10-22T01:12:13.540Z,13.95
2022-10-22T01:14:22.927Z,13.97
2022-10-22T01:16:33.756Z,13.97
2022-10-22T01:18:44.575Z,13.94
2022-10-22T01:20:59.794Z,14.01
2022-10-22T01:23:17.328Z,13.97
2022-10-22T01:25:30.949Z,14.04
2022-10-22T01:27:43.453Z,14.01
2022-10-22T01:29:51.777Z,14.05
2022-10-22T01:31:59.344Z,14.00
2022-10-22T01:34:04.366Z,14.01
2022-10-22T01:36:08.272Z,13.93
2022-10-22T01:38:15.940Z,13.92
2022-10-22T01:40:20.781Z,13.92
2022-10-22T01:42:24.550Z,14.00
2022-10-22T01:44:28.834Z,13.93
2022-10-22T01:46:33.549Z,13.93
2022-10-22T01:48:52.127Z,14.01
2022-10-22T01:51:15.157Z,13.99
2022-10-22T01:53:26.443Z,14.11
2022-10-22T01:55:34.552Z,14.21
2022-10-22T01:57:45.239Z,14.12
2022-10-22T01:59:55.605Z,14.23
2022-10-22T02:02:08.374Z,14.45
2022-10-22T02:04:19.769Z,14.19
2022-10-22T02:06:25.853Z,14.32
2022-10-22T02:08:32.474Z,14.29
2022-10-22T02:10:38.371Z,14.20
2022-10-22T02:12:44.509Z,14.19
2022-10-22T02:14:50.277Z,14.13
2022-10-22T02:16:52.978Z,14.03
2022-10-22T02:19:01.607Z,13.99
2022-10-22T02:21:04.466Z,14.07
2022-10-22T02:23:07.183Z,13.92
2022-10-22T02:25:10.729Z,13.87
2022-10-22T02:27:25.859Z,13.82
2022-10-22T02:29:35.899Z,13.78
2022-10-22T02:31:41.575Z,13.78
2022-10-22T02:33:48.476Z,13.73
2022-10-22T02:35:53.341Z,13.70
2022-10-22T02:37:58.038Z,13.73
2022-10-22T02:40:00.592Z,13.67
2022-10-22T02:42:03.945Z,13.77
2022-10-22T02:44:10.374Z,13.70
2022-10-22T02:46:13.361Z,13.70
2022-10-22T02:48:16.067Z,13.67
2022-10-22T02:50:18.692Z,13.66
2022-10-22T02:52:22.616Z,13.68
2022-10-22T02:54:25.223Z,13.74
2022-10-22T02:56:30.541Z,13.66
2022-10-22T02:58:33.179Z,13.68
2022-10-22T03:00:35.777Z,13.67
2022-10-22T03:02:38.420Z,13.67
2022-10-22T03:04:40.994Z,13.83
2022-10-22T03:06:44.097Z,13.80
2022-10-22T03:08:48.232Z,13.76
2022-10-22T03:10:50.841Z,13.78
2022-10-22T03:12:53.454Z,13.76
2022-10-22T03:14:56.077Z,13.73
2022-10-22T03:16:58.664Z,13.85
2022-10-22T03:19:01.943Z,13.86
2022-10-22T03:21:08.858Z,14.00
2022-10-22T03:23:12.393Z,13.85
2022-10-22T03:25:21.912Z,13.96
2022-10-22T03:27:24.564Z,13.87
2022-10-22T03:29:28.459Z,13.90
2022-10-22T03:31:31.056Z,13.94
2022-10-22T03:33:33.617Z,13.90
2022-10-22T03:35:44.541Z,13.89
2022-10-22T03:37:47.248Z,13.87
2022-10-22T03:39:50.055Z,14.09
2022-10-22T03:41:54.626Z,14.01
2022-10-22T03:43:57.673Z,14.20
2022-10-22T03:46:00.252Z,14.21
2022-10-22T03:48:02.929Z,14.24
2022-10-22T03:50:07.236Z,14.25
2022-10-22T03:52:12.122Z,14.12
2022-10-22T03:54:14.781Z,13.93
2022-10-22T03:56:17.326Z,13.79
2022-10-22T03:58:21.315Z,13.80
2022-10-22T04:00:23.951Z,13.81
2022-10-22T04:02:26.536Z,13.74
2022-10-22T04:04:29.340Z,13.67
2022-10-22T04:06:32.034Z,13.66
2022-10-22T04:08:35.217Z,13.68
2022-10-22T04:10:37.813Z,13.66
2022-10-22T04:12:40.389Z,13.66
2022-10-22T04:14:44.307Z,13.67
2022-10-22T04:16:46.903Z,13.64
2022-10-22T04:18:51.365Z,13.64
2022-10-22T04:20:53.935Z,13.60
2022-10-22T04:22:56.539Z,13.60
2022-10-22T04:24:59.125Z,13.57
2022-10-22T04:27:01.736Z,13.59
2022-10-22T04:29:04.433Z,13.58
2022-10-22T04:31:12.213Z,13.58
2022-10-22T04:33:14.805Z,13.59
2022-10-22T04:35:17.630Z,13.57
2022-10-22T04:37:20.673Z,13.55
2022-10-22T04:39:23.425Z,13.55
2022-10-22T04:41:28.198Z,13.48
2022-10-22T04:43:30.829Z,13.49
2022-10-22T04:45:34.008Z,13.54
2022-10-22T04:47:38.135Z,13.52
2022-10-22T04:49:41.416Z,13.58
2022-10-22T04:51:43.960Z,13.47
2022-10-22T04:53:47.457Z,13.45
2022-10-22T04:55:50.101Z,13.44
2022-10-22T04:57:52.673Z,13.40
2022-10-22T04:59:55.322Z,13.38
2022-10-22T05:01:57.887Z,13.26
2022-10-22T05:04:03.635Z,13.29
2022-10-22T05:06:06.672Z,13.28
2022-10-22T05:08:09.266Z,13.31
2022-10-22T05:10:11.849Z,13.31
2022-10-22T05:12:14.483Z,13.32
2022-10-22T05:14:18.728Z,13.47
2022-10-22T05:16:21.302Z,13.40
2022-10-22T05:18:23.903Z,13.37
2022-10-22T05:20:27.812Z,13.40
2022-10-22T05:22:30.373Z,13.44
2022-10-22T05:24:36.723Z,13.51
2022-10-22T05:26:39.346Z,13.70
2022-10-22T05:28:42.092Z,13.59
2022-10-22T05:30:54.019Z,13.56
2022-10-22T05:32:56.613Z,13.66
2022-10-22T05:34:59.187Z,13.67
2022-10-22T05:37:03.154Z,13.57
2022-10-22T05:39:06.610Z,13.54
2022-10-22T05:41:14.018Z,13.53
2022-10-22T05:43:16.595Z,13.54
2022-10-22T05:45:19.245Z,13.51
2022-10-22T05:47:21.804Z,13.51
2022-10-22T05:49:24.402Z,13.52
2022-10-22T05:51:28.391Z,13.50
2022-10-22T05:53:32.936Z,13.45
2022-10-22T05:55:37.468Z,13.45
2022-10-22T05:57:40.913Z,13.44
2022-10-22T05:59:43.574Z,13.46
2022-10-22T06:01:46.271Z,13.44
2022-10-22T06:03:49.779Z,13.43
2022-10-22T06:05:52.347Z,13.42
2022-10-22T06:07:55.474Z,13.39
2022-10-22T06:10:00.384Z,13.37
2022-10-22T06:12:03.424Z,13.37
2022-10-22T06:14:06.306Z,13.37
2022-10-22T06:16:08.897Z,13.38
2022-10-22T06:18:12.197Z,13.35
2022-10-22T06:20:15.865Z,13.38
2022-10-22T06:22:18.420Z,13.39
2022-10-22T06:24:21.014Z,13.42
2022-10-22T06:26:24.995Z,13.41
2022-10-22T06:28:28.769Z,13.41
2022-10-22T06:30:31.379Z,13.42
2022-10-22T06:32:33.987Z,13.43
2022-10-22T06:34:36.595Z,13.45
2022-10-22T06:36:39.393Z,13.46
2022-10-22T06:38:42.653Z,13.46
2022-10-22T06:40:45.238Z,13.47
2022-10-22T06:42:49.125Z,13.51
2022-10-22T06:44:51.785Z,13.51
2022-10-22T06:46:54.535Z,13.51
2022-10-22T06:48:59.010Z,13.52
2022-10-22T06:51:03.556Z,13.51
2022-10-22T06:53:06.116Z,13.51
2022-10-22T06:55:09.355Z,13.44
2022-10-22T06:57:11.945Z,13.42
2022-10-22T06:59:15.899Z,13.42
2022-10-22T07:01:21.640Z,13.43
2022-10-22T07:03:24.290Z,13.44
2022-10-22T07:05:26.906Z,13.43
2022-10-22T07:07:29.479Z,13.44
2022-10-22T07:09:32.064Z,13.42
2022-10-22T07:11:41.185Z,13.49
2022-10-22T07:13:44.557Z,13.54
2022-10-22T07:15:53.709Z,13.55
2022-10-22T07:17:56.293Z,13.53
2022-10-22T07:19:58.856Z,13.59
2022-10-22T07:22:01.745Z,13.64
2022-10-22T07:24:04.771Z,13.68
2022-10-22T07:26:08.569Z,13.68
2022-10-22T07:28:12.066Z,13.68
2022-10-22T07:30:15.027Z,13.78
2022-10-22T07:32:23.569Z,13.73
2022-10-22T07:34:26.456Z,13.81
2022-10-22T07:36:29.063Z,13.72
2022-10-22T07:38:32.483Z,13.70
2022-10-22T07:40:36.199Z,13.71
2022-10-22T07:42:38.804Z,13.70
2022-10-22T07:44:41.417Z,13.73
2022-10-22T07:46:48.037Z,13.76
2022-10-22T07:48:53.919Z,13.82
2022-10-22T07:50:56.793Z,13.88
2022-10-22T07:52:59.624Z,13.92
2022-10-22T07:55:02.464Z,13.98
2022-10-22T07:57:05.043Z,14.05
2022-10-22T07:59:07.638Z,14.05
2022-10-22T08:01:10.427Z,14.09
2022-10-22T08:03:13.757Z,14.16
2022-10-22T08:05:18.112Z,14.18
2022-10-22T08:07:20.775Z,14.16
2022-10-22T08:09:23.379Z,14.19
2022-10-22T08:11:26.841Z,14.23
2022-10-22T08:13:31.151Z,14.25
2022-10-22T08:15:33.850Z,14.27
2022-10-22T08:17:36.439Z,14.30
2022-10-22T08:19:39.009Z,14.32
2022-10-22T08:21:42.964Z,14.33
2022-10-22T08:23:45.592Z,14.32
2022-10-22T08:25:48.154Z,14.33
2022-10-22T08:27:50.768Z,14.37
2022-10-22T08:29:53.340Z,14.39
2022-10-22T08:31:56.015Z,14.41
2022-10-22T08:33:58.633Z,14.45
2022-10-22T08:36:01.249Z,14.46
2022-10-22T08:38:05.189Z,14.52
2022-10-22T08:40:08.612Z,14.55
2022-10-22T08:42:31.993Z,14.56
2022-10-22T08:44:59.295Z,14.59
2022-10-22T08:47:21.407Z,14.62
2022-10-22T08:49:29.921Z,14.67
2022-10-22T08:51:35.331Z,14.71
2022-10-22T08:53:45.490Z,14.79
2022-10-22T08:55:49.818Z,14.88
2022-10-22T08:58:00.570Z,14.87
2022-10-22T09:00:07.761Z,15.00
2022-10-22T09:02:28.268Z,15.04
2022-10-22T09:04:41.567Z,15.07
2022-10-22T09:06:44.371Z,15.17
2022-10-22T09:08:48.845Z,15.21
2022-10-22T09:10:55.963Z,15.34
2022-10-22T09:12:58.587Z,15.54
2022-10-22T09:15:01.189Z,15.41
2022-10-22T09:17:14.432Z,15.44
2022-10-22T09:19:26.123Z,15.42
2022-10-22T09:21:35.532Z,15.74
2022-10-22T09:23:50.025Z,15.69
2022-10-22T09:25:55.410Z,15.53
2022-10-22T09:27:59.181Z,15.65
2022-10-22T09:30:02.507Z,15.48
2022-10-22T09:32:05.476Z,15.48
2022-10-22T09:34:08.072Z,15.46
2022-10-22T09:36:14.939Z,15.51
2022-10-22T09:38:21.074Z,15.50
2022-10-22T09:40:24.248Z,15.51
2022-10-22T09:42:28.257Z,15.59
2022-10-22T09:44:34.397Z,15.57
2022-10-22T09:46:43.960Z,15.69
2022-10-22T09:48:50.859Z,15.87
2022-10-22T09:51:00.313Z,15.80
2022-10-22T09:53:12.723Z,15.74
2022-10-22T09:55:17.876Z,15.73
2022-10-22T09:57:23.538Z,15.78
2022-10-22T09:59:30.549Z,15.85
2022-10-22T10:01:35.187Z,16.03
2022-10-22T10:03:37.762Z,15.95
2022-10-22T10:05:44.064Z,16.05
2022-10-22T10:07:47.392Z,16.09
2022-10-22T10:09:51.442Z,16.25
2022-10-22T10:12:00.887Z,16.22
2022-10-22T10:14:12.078Z,16.20
2022-10-22T10:16:35.433Z,16.20
2022-10-22T10:18:54.511Z,16.27
2022-10-22T10:21:05.517Z,16.14
2022-10-22T10:23:21.754Z,16.12
2022-10-22T10:25:42.898Z,16.26
2022-10-22T10:27:54.641Z,16.23
2022-10-22T10:30:01.239Z,16.22
2022-10-22T10:32:24.737Z,16.13
2022-10-22T10:34:40.788Z,16.17
2022-10-22T10:36:50.059Z,16.20
2022-10-22T10:38:59.247Z,16.23
2022-10-22T10:41:14.011Z,16.18
2022-10-22T10:43:22.476Z,16.36
2022-10-22T10:45:33.492Z,16.57
2022-10-22T10:47:55.790Z,16.50
2022-10-22T10:50:15.061Z,16.41
2022-10-22T10:52:27.496Z,16.41
2022-10-22T10:54:44.777Z,16.74
2022-10-22T10:56:52.822Z,16.64
2022-10-22T10:59:02.957Z,16.76
2022-10-22T11:01:17.048Z,16.56
2022-10-22T11:03:55.986Z,16.44
2022-10-22T11:06:03.021Z,16.39
2022-10-22T11:08:11.880Z,16.39
2022-10-22T11:10:25.259Z,16.36
2022-10-22T11:12:32.747Z,16.42
2022-10-22T11:14:47.128Z,16.43
2022-10-22T11:16:56.393Z,16.52
2022-10-22T11:19:04.366Z,16.55
2022-10-22T11:21:17.554Z,16.69
2022-10-22T11:23:29.177Z,16.90
2022-10-22T11:25:35.629Z,16.79
2022-10-22T11:27:43.185Z,16.70
2022-10-22T11:29:53.258Z,16.90
2022-10-22T11:31:57.069Z,16.71
2022-10-22T11:34:32.164Z,16.64
2022-10-22T11:36:33.369Z,16.57
2022-10-22T11:38:36.734Z,16.56
2022-10-22T11:40:45.012Z,16.64
2022-10-22T11:42:51.281Z,16.58
2022-10-22T11:45:02.569Z,16.57
2022-10-22T11:47:16.601Z,16.53
2022-10-22T11:49:27.975Z,16.48
2022-10-22T11:51:35.320Z,16.47
2022-10-22T11:53:39.753Z,16.62
2022-10-22T11:55:48.292Z,16.65
2022-10-22T11:57:51.013Z,16.60
2022-10-22T11:59:57.331Z,16.55
2022-10-22T12:01:59.901Z,16.53
2022-10-22T12:04:21.966Z,16.56
2022-10-22T12:06:26.053Z,16.68
2022-10-22T12:08:30.536Z,16.71
2022-10-22T12:10:37.341Z,16.80
2022-10-22T12:12:40.918Z,16.90
2022-10-22T12:14:56.070Z,16.94
2022-10-22T12:17:03.788Z,17.05
2022-10-22T12:19:14.677Z,17.19
2022-10-22T12:21:17.712Z,17.21
2022-10-22T12:23:25.924Z,17.16
2022-10-22T12:25:35.778Z,17.15
2022-10-22T12:27:40.469Z,17.09
2022-10-22T12:29:43.476Z,17.03
2022-10-22T12:31:48.078Z,17.28
2022-10-22T12:33:57.492Z,17.39
2022-10-22T12:36:04.047Z,17.49
2022-10-22T12:38:14.250Z,17.29
2022-10-22T12:40:18.518Z,17.24
2022-10-22T12:42:23.782Z,17.26
2022-10-22T12:44:26.448Z,17.43
2022-10-22T12:46:31.480Z,17.36
2022-10-22T12:48:40.117Z,17.36
2022-10-22T12:50:45.692Z,17.36
2022-10-22T12:52:49.260Z,17.42
2022-10-22T12:54:54.755Z,17.43
2022-10-22T12:57:00.392Z,17.56
2022-10-22T12:59:08.731Z,17.54
2022-10-22T13:01:13.087Z,17.53
2022-10-22T13:03:29.395Z,17.55
2022-10-22T13:05:38.821Z,17.56
2022-10-22T13:07:44.001Z,17.56
2022-10-22T13:09:48.661Z,17.53
2022-10-22T13:11:54.410Z,17.73
2022-10-22T13:14:04.249Z,17.75
2022-10-22T13:16:22.757Z,17.76
2022-10-22T13:18:26.965Z,17.72
2022-10-22T13:20:29.567Z,17.72
2022-10-22T13:22:34.638Z,17.72
2022-10-22T13:24:49.854Z,17.74
2022-10-22T13:26:55.315Z,17.73
2022-10-22T13:28:59.274Z,17.74
2022-10-22T13:31:10.714Z,17.72
2022-10-22T13:33:26.138Z,17.77
2022-10-22T13:35:32.020Z,17.79
2022-10-22T13:37:35.565Z,17.82
2022-10-22T13:39:38.194Z,17.87
2022-10-22T13:41:41.520Z,17.91
2022-10-22T13:43:44.174Z,17.97
2022-10-22T13:45:48.878Z,18.04
2022-10-22T13:47:55.734Z,18.16
2022-10-22T13:50:00.961Z,18.31
2022-10-22T13:52:07.525Z,18.62
2022-10-22T13:54:15.980Z,18.82
2022-10-22T13:56:20.172Z,19.02
2022-10-22T13:58:25.153Z,19.23
2022-10-22T14:00:28.024Z,19.38
2022-10-22T14:02:30.965Z,19.46
2022-10-22T14:04:37.177Z,19.52
2022-10-22T14:06:39.790Z,19.61
2022-10-22T14:08:43.549Z,19.67
2022-10-22T14:10:46.557Z,19.74
2022-10-22T14:12:52.547Z,19.80
2022-10-22T14:17:00.092Z,20.02
2022-10-22T14:19:04.249Z,20.06
2022-10-22T14:21:08.691Z,20.08
2022-10-22T14:25:23.846Z,20.23
2022-10-22T14:27:26.431Z,20.24
2022-10-22T14:29:29.039Z,20.27
2022-10-22T14:31:32.144Z,20.59
2022-10-22T14:33:35.168Z,20.53
2022-10-22T14:35:37.768Z,20.51
2022-10-22T14:37:42.016Z,20.41
2022-10-22T14:39:46.633Z,20.45
2022-10-22T14:41:49.279Z,20.34
2022-10-22T14:43:54.920Z,20.28
2022-10-22T14:45:58.693Z,20.21
2022-10-22T14:48:01.932Z,20.14
2022-10-22T14:50:05.194Z,20.14
2022-10-22T14:52:14.189Z,20.12
2022-10-22T14:54:18.961Z,20.11
2022-10-22T14:56:22.232Z,20.09
2022-10-22T14:58:24.890Z,20.05
2022-10-22T15:00:27.682Z,19.98
2022-10-22T15:02:30.312Z,19.91
2022-10-22T15:04:33.151Z,19.87
2022-10-22T15:06:36.287Z,19.81
2022-10-22T15:08:39.433Z,19.71
2022-10-22T15:10:43.825Z,19.67
2022-10-22T15:12:46.671Z,19.59
2022-10-22T15:14:49.541Z,19.50
2022-10-22T15:16:52.120Z,19.38
2022-10-22T15:18:54.776Z,19.24
2022-10-22T15:20:59.261Z,19.10
2022-10-22T15:23:01.909Z,18.99
2022-10-22T15:25:07.363Z,18.87
2022-10-22T15:27:14.279Z,18.77
2022-10-22T15:29:16.850Z,18.71
2022-10-22T15:31:43.839Z,18.67
2022-10-22T15:33:46.430Z,18.62
2022-10-22T15:35:49.006Z,18.59
2022-10-22T15:37:52.473Z,18.55
2022-10-22T15:39:55.137Z,18.51
2022-10-22T15:41:58.585Z,18.44
2022-10-22T15:44:02.584Z,18.36
2022-10-22T15:46:14.223Z,18.27
2022-10-22T15:48:16.826Z,18.21
2022-10-22T15:50:19.405Z,18.14
2022-10-22T15:52:22.383Z,18.08
2022-10-22T15:54:28.145Z,18.01
2022-10-22T15:56:31.752Z,17.98
2022-10-22T15:58:34.571Z,17.92
2022-10-22T16:00:38.532Z,17.87
2022-10-22T16:02:41.152Z,17.81
2022-10-22T16:04:43.749Z,17.72
2022-10-22T16:06:48.664Z,17.63
2022-10-22T16:08:51.252Z,17.56
2022-10-22T16:10:53.977Z,17.51
2022-10-22T16:12:57.557Z,17.39
2022-10-22T16:15:00.118Z,17.33
2022-10-22T16:17:04.040Z,17.24
2022-10-22T16:19:07.260Z,17.17
2022-10-22T16:21:14.608Z,17.10
2022-10-22T16:23:19.049Z,17.05
2022-10-22T16:25:21.801Z,17.01
2022-10-22T16:27:24.364Z,16.92
2022-10-22T16:29:27.063Z,16.92
2022-10-22T16:31:29.761Z,16.82
2022-10-22T16:33:41.384Z,16.78
2022-10-22T16:35:49.464Z,16.74
2022-10-22T16:37:52.084Z,16.71
2022-10-22T16:39:54.714Z,16.69
2022-10-22T16:41:57.343Z,16.66
2022-10-22T16:44:02.392Z,16.62
2022-10-22T16:46:05.895Z,16.60
2022-10-22T16:48:08.465Z,16.58
2022-10-22T16:50:12.571Z,16.48
2022-10-22T16:52:15.121Z,16.47
2022-10-22T16:54:17.736Z,16.43
2022-10-22T16:56:20.480Z,16.40
2022-10-22T16:58:24.492Z,16.38
2022-10-22T17:00:27.084Z,16.35
2022-10-22T17:02:29.756Z,16.32
2022-10-22T17:04:32.335Z,16.30
2022-10-22T17:06:36.283Z,16.26
2022-10-22T17:08:40.318Z,16.25
2022-10-22T17:10:42.951Z,16.24
2022-10-22T17:12:45.541Z,16.22
2022-10-22T17:14:48.125Z,16.20
2022-10-22T17:16:53.632Z,16.18
2022-10-22T17:18:57.221Z,16.17
2022-10-22T17:20:59.880Z,16.18
2022-10-22T17:23:03.800Z,16.11
2022-10-22T17:25:13.116Z,16.05
2022-10-22T17:27:15.781Z,16.01
2022-10-22T17:29:18.407Z,15.94
2022-10-22T17:31:22.784Z,15.88
2022-10-22T17:33:25.482Z,15.78
2022-10-22T17:37:36.857Z,15.77
2022-10-22T17:39:40.739Z,15.77
2022-10-22T17:41:43.383Z,15.80
2022-10-22T17:45:54.021Z,15.60
2022-10-22T17:47:57.216Z,15.54
2022-10-22T17:49:59.891Z,15.51
2022-10-22T17:52:02.477Z,15.47
2022-10-22T17:54:07.491Z,15.44
2022-10-22T17:56:15.617Z,15.43
2022-10-22T17:58:18.186Z,15.30
2022-10-22T18:00:21.359Z,15.31
2022-10-22T18:02:23.934Z,15.26
2022-10-22T18:04:29.223Z,15.25
2022-10-22T18:06:32.810Z,15.25
2022-10-22T18:08:35.598Z,15.24
2022-10-22T18:10:40.902Z,15.20
2022-10-22T18:12:44.887Z,15.22
2022-10-22T18:14:50.221Z,15.10
2022-10-22T18:16:54.474Z,15.07
2022-10-22T18:18:58.373Z,15.05
2022-10-22T18:21:01.515Z,15.04
2022-10-22T18:23:04.258Z,15.02
2022-10-22T18:25:07.662Z,14.98
2022-10-22T18:27:10.245Z,14.96
2022-10-22T18:29:17.980Z,14.96
2022-10-22T18:31:22.758Z,14.94
2022-10-22T18:33:25.760Z,14.91
2022-10-22T18:35:28.297Z,14.90
2022-10-22T18:37:31.878Z,14.89
2022-10-22T18:39:35.611Z,14.89
2022-10-22T18:41:38.201Z,14.89
2022-10-22T18:43:40.810Z,14.89
2022-10-22T18:45:45.235Z,14.88
2022-10-22T18:47:47.853Z,14.84
2022-10-22T18:49:51.726Z,14.84
2022-10-22T18:51:54.355Z,14.83
2022-10-22T18:54:11.257Z,14.82
2022-10-22T18:56:19.989Z,14.82
2022-10-22T18:58:22.636Z,14.82
2022-10-22T19:00:26.441Z,14.82
2022-10-22T19:02:30.394Z,14.81
2022-10-22T19:04:36.864Z,14.81
2022-10-22T19:06:42.974Z,14.80
2022-10-22T19:08:51.328Z,14.79
2022-10-22T19:10:54.240Z,14.79
2022-10-22T19:12:56.827Z,14.73
2022-10-22T19:14:59.478Z,14.74
2022-10-22T19:17:02.273Z,14.70
2022-10-22T19:19:07.841Z,14.71
2022-10-22T19:21:10.417Z,14.69
2022-10-22T19:23:15.041Z,14.67
2022-10-22T19:25:19.935Z,14.64
2022-10-22T19:27:22.481Z,14.65
2022-10-22T19:29:25.064Z,14.64
2022-10-22T19:31:29.826Z,14.60
2022-10-22T19:33:32.463Z,14.59
2022-10-22T19:35:38.431Z,14.57
2022-10-22T19:37:44.879Z,14.55
2022-10-22T19:39:50.279Z,14.55
2022-10-22T19:41:52.842Z,14.54
2022-10-22T19:43:56.754Z,14.50
2022-10-22T19:45:59.332Z,14.47
2022-10-22T19:48:01.927Z,14.47
2022-10-22T19:50:04.875Z,14.45
2022-10-22T19:52:08.923Z,14.41
2022-10-22T19:54:18.354Z,14.37
2022-10-22T19:56:21.897Z,14.36
2022-10-22T19:58:24.469Z,14.33
2022-10-22T20:00:29.308Z,14.32
2022-10-22T20:02:31.940Z,14.29
2022-10-22T20:04:34.484Z,14.28
2022-10-22T20:06:37.053Z,14.29
2022-10-22T20:08:41.418Z,14.26
2022-10-22T20:10:44.047Z,14.25
2022-10-22T20:12:49.652Z,14.24
2022-10-22T20:14:52.379Z,14.23
2022-10-22T20:16:54.998Z,14.23
2022-10-22T20:19:01.245Z,14.22
2022-10-22T20:21:05.626Z,14.23
2022-10-22T20:23:08.689Z,14.24
2022-10-22T20:25:13.660Z,14.22
2022-10-22T20:27:16.244Z,14.22
2022-10-22T20:29:19.415Z,14.23
2022-10-22T20:31:24.093Z,14.23
2022-10-22T20:33:26.685Z,14.20
2022-10-22T20:35:29.325Z,14.18
2022-10-22T20:37:31.979Z,14.19
2022-10-22T20:39:34.576Z,14.17
2022-10-22T20:41:40.374Z,14.17
2022-10-22T20:43:44.764Z,14.14
2022-10-22T20:45:47.371Z,14.12
2022-10-22T20:47:51.821Z,14.07
2022-10-22T20:50:01.205Z,14.06
2022-10-22T20:52:03.849Z,14.02
2022-10-22T20:54:08.169Z,14.00
2022-10-22T20:56:11.110Z,13.98
2022-10-22T20:58:15.132Z,13.95
2022-10-22T21:00:18.049Z,13.92
2022-10-22T21:02:20.612Z,13.88
2022-10-22T21:04:23.201Z,13.84
2022-10-22T21:06:26.000Z,13.79
2022-10-22T21:08:28.559Z,13.70
2022-10-22T21:10:32.558Z,13.67
2022-10-22T21:12:35.778Z,13.62
2022-10-22T21:14:39.717Z,13.58
2022-10-22T21:16:43.405Z,13.54
2022-10-22T21:18:46.124Z,13.47
2022-10-22T21:20:48.683Z,13.49
2022-10-22T21:22:51.275Z,13.43
2022-10-22T21:24:53.843Z,13.43
2022-10-22T21:26:56.407Z,13.38
2022-10-22T21:28:58.961Z,13.37
2022-10-22T21:31:03.072Z,13.37
2022-10-22T21:33:08.553Z,13.37
2022-10-22T21:35:11.097Z,13.38
2022-10-22T21:37:13.718Z,13.41
2022-10-22T21:39:16.293Z,13.46
2022-10-22T21:41:21.234Z,13.47
2022-10-22T21:43:23.878Z,13.49
2022-10-22T21:45:26.508Z,13.51
2022-10-22T21:47:30.384Z,13.51
2022-10-22T21:49:33.020Z,13.47
2022-10-22T21:51:38.082Z,13.44
2022-10-22T21:53:41.611Z,13.42
2022-10-22T21:55:44.203Z,13.41
2022-10-22T21:57:46.758Z,13.42
2022-10-22T21:59:49.356Z,13.43
2022-10-22T22:01:51.915Z,13.41
2022-10-22T22:03:56.372Z,13.42
2022-10-22T22:05:59.712Z,13.40
2022-10-22T22:08:02.265Z,13.39
2022-10-22T22:10:05.663Z,13.37
2022-10-22T22:12:09.414Z,13.34
2022-10-22T22:14:12.840Z,13.33
2022-10-22T22:16:20.317Z,13.34
2022-10-22T22:18:25.220Z,13.33
2022-10-22T22:20:29.660Z,13.22
2022-10-22T22:22:32.281Z,13.21
2022-10-22T22:24:35.175Z,13.20
2022-10-22T22:26:37.951Z,13.20
2022-10-22T22:28:40.736Z,13.21
2022-10-22T22:30:43.721Z,13.14
2022-10-22T22:32:46.298Z,13.10
2022-10-22T22:34:48.911Z,13.09
2022-10-22T22:36:53.103Z,13.09
2022-10-22T22:38:56.795Z,13.10
2022-10-22T22:40:59.788Z,13.08
2022-10-22T22:43:02.376Z,13.08
2022-10-22T22:45:05.648Z,13.06
2022-10-22T22:47:08.272Z,13.05
2022-10-22T22:49:10.900Z,13.04
2022-10-22T22:51:13.460Z,13.05
2022-10-22T22:53:17.394Z,12.98
2022-10-22T22:55:20.058Z,12.96
2022-10-22T22:57:22.616Z,12.93
2022-10-22T22:59:25.229Z,12.87
2022-10-22T23:01:30.378Z,12.83
2022-10-22T23:03:33.003Z,12.81
2022-10-22T23:05:37.233Z,12.79
2022-10-22T23:07:39.952Z,12.77
2022-10-22T23:09:46.486Z,12.74
2022-10-22T23:11:49.371Z,12.73
2022-10-22T23:13:54.885Z,12.74
2022-10-22T23:15:57.484Z,12.71
2022-10-22T23:18:00.049Z,12.60
2022-10-22T23:20:02.713Z,12.56
2022-10-22T23:22:05.285Z,12.55
2022-10-22T23:24:10.145Z,12.55
2022-10-22T23:26:15.873Z,12.53
2022-10-22T23:28:18.454Z,12.55
2022-10-22T23:30:21.231Z,12.55
2022-10-22T23:32:23.771Z,12.54
2022-10-22T23:34:26.389Z,12.53
2022-10-22T23:36:29.605Z,12.50
2022-10-22T23:38:32.173Z,12.43
2022-10-22T23:40:34.963Z,12.41
2022-10-22T23:44:46.362Z,12.40
2022-10-22T23:46:49.306Z,12.37
2022-10-22T23:48:53.640Z,12.36
2022-10-22T23:50:56.195Z,12.27
2022-10-22T23:52:58.820Z,12.25
2022-10-22T23:55:01.440Z,12.25
2022-10-22T23:57:04.079Z,12.24
2022-10-22T23:59:08.872Z,12.24
